• Join FlightAware (Why Join?)
  • Login
  • US Flag 
08:09AM EDT


 

Airport Tracker/Info


-or-


 

Live Flight TrackerFlight Track Log ✈ SWA279 ✈ 19-Apr-2013 ✈ KHOU - KLAX

Flight Track Log - Related Links

Times and Time Zones

All times are in EDT time to prevent confusion due to time zone crossing. See the SWA279 flight status page for this flight to view local times or setup timezone preferences in your user account.

Time Position Orientation Groundspeed Altitude Reporting Facility
EDT Latitude Longitude Course Direction KTS MPH feet Rate Location/Type
03:51PM 29.6664 -95.3069 291° West 148 170 2,000  Level Houston Center
03:52PM 29.6858 -95.3319 312° West 177 204 2,800 2,400 Climbing Houston Center
03:53PM 29.7269 -95.3906 309° West 224 258 5,900 3,180 Climbing Houston Center
03:54PM 29.7592 -95.4550 300° West 232 267 9,400 2,580 Climbing Houston Center
03:55PM 29.7786 -95.5378 285° West 269 310 11,300 1,920 Climbing Houston Center
03:56PM 29.8031 -95.6408 285° West 327 376 13,500 2,880 Climbing Houston Center
03:57PM 29.8731 -95.9026 291° West  Level FlightAware Approximate
03:57PM 29.8325 -95.7689 285° West 342 394 17,300  Level Houston Center
03:58PM 29.8569 -95.8833 284° West 367 422 19,300 2,160 Climbing Houston Center
03:59PM 29.8872 -95.9956 287° West 369 425 21,800 2,220 Climbing Houston Center
04:00PM 29.9164 -96.1231 285° West 383 441 23,900 1,980 Climbing Houston Center
04:01PM 29.9442 -96.2439 285° West 391 450 25,900 2,100 Climbing Houston Center
04:02PM 29.9722 -96.3633 285° West 390 449 28,300 2,160 Climbing Houston Center
04:03PM 29.9975 -96.4764 285° West 372 428 30,400 1,980 Climbing Houston Center
04:04PM 30.0272 -96.6111 284° West 364 419 32,500 1,860 Climbing Houston Center
04:06PM 30.0528 -96.7192 285° West 352 405 34,300 1,620 Climbing Houston Center
04:07PM 30.0761 -96.8256 284° West 345 397 35,900 780 Climbing Houston Center
04:08PM 30.0989 -96.9286 284° West 336 387 36,000  Climbing Houston Center
04:09PM 30.1256 -97.0478 285° West 339 390 36,000  Level Houston Center
04:10PM 30.1492 -97.1536 284° West 337 388 36,000  Level Houston Center
04:11PM 30.1736 -97.2625 285° West 343 395 36,000  Level Houston Center
04:12PM 30.1978 -97.3694 285° West 341 392 36,000  Level Houston Center
04:13PM 30.2214 -97.4789 284° West 347 399 36,000  Level Houston Center
04:14PM 30.2450 -97.5878 284° West 346 398 36,000  Level Houston Center
04:15PM 30.2731 -97.7161 284° West 348 400 36,000  Level Houston Center
04:16PM 30.2958 -97.8264 283° West 349 402 36,000  Level Houston Center
04:17PM 30.3203 -97.9394 284° West 349 402 36,000  Level Houston Center
04:18PM 30.3425 -98.0453 284° West 346 398 36,000  Level Houston Center
04:19PM 30.3661 -98.1544 284° West 346 398 36,000  Level Houston Center
04:20PM 30.3892 -98.2647 284° West 347 399 36,000  Level Houston Center
04:21PM 30.4128 -98.3761 284° West 351 404 36,000  Level Houston Center
04:22PM 30.4403 -98.5056 284° West 351 404 36,000  Level Houston Center
04:23PM 30.4631 -98.6175 283° West 354 407 36,000  Level Houston Center
04:24PM 30.4861 -98.7306 283° West 357 411 36,000  Level Houston Center
04:25PM 30.5103 -98.8439 284° West 360 414 36,000  Level Houston Center
04:26PM 30.5353 -98.9586 284° West 363 418 36,000  Level Houston Center
04:27PM 30.5583 -99.0733 283° West 363 418 36,000  Level Houston Center
04:28PM 30.5825 -99.1914 283° West 363 418 36,000  Level Houston Center
04:29PM 30.6061 -99.3053 284° West 364 419 36,000  Level Houston Center
04:30PM 30.6300 -99.4206 284° West 368 423 36,000 420 Level Houston Center
04:31PM 30.6569 -99.5583 283° West 367 422 36,900 900 Climbing Houston Center
04:32PM 30.6803 -99.6717 283° West 364 419 37,900 480 Climbing Houston Center
04:33PM 30.7028 -99.7856 283° West 364 419 38,000  Climbing Houston Center
04:35PM 30.7250 -99.9003 283° West 366 421 38,000  Level Houston Center
04:36PM 30.7472 -100.0147 283° West 366 421 38,000  Level Houston Center
04:37PM 30.7744 -100.1531 283° West 367 422 38,000  Level Houston Center
04:38PM 30.7978 -100.2697 283° West 371 427 38,000  Level Houston Center
04:39PM 30.8206 -100.3864 283° West 373 429 38,000  Level Houston Center
04:40PM 30.8431 -100.5053 282° West 376 433 38,000  Level Houston Center
04:41PM 30.8644 -100.6208 282° West 370 426 38,000  Level Houston Center
04:42PM 30.8908 -100.7622 282° West 374 430 38,000  Level Houston Center
04:43PM 30.9131 -100.8797 282° West 374 430 38,000  Level Houston Center
04:44PM 30.9364 -100.9956 283° West 371 427 38,000  Level Houston Center
04:45PM 30.9581 -101.1131 282° West 372 428 38,000  Level Houston Center
04:46PM 30.9794 -101.2292 282° West 369 425 38,000  Level Houston Center
04:47PM 31.0058 -101.3697 282° West 369 425 38,000  Level Houston Center
04:48PM 31.0275 -101.4872 282° West 371 427 38,000  Level Houston Center
04:49PM 31.0503 -101.6056 283° West 373 429 38,000  Level Houston Center
04:50PM 31.0761 -101.7511 282° West 377 434 38,000  Level Albuquerque Center
04:51PM 31.0975 -101.8719 282° West 380 437 38,000  Level Albuquerque Center
04:52PM 31.1194 -101.9944 282° West 384 442 38,000  Level Albuquerque Center
04:53PM 31.1408 -102.1156 282° West 383 441 38,000  Level Albuquerque Center
04:54PM 31.1633 -102.2369 282° West 383 441 38,000  Level Albuquerque Center
04:55PM 31.1844 -102.3594 281° West 384 442 38,000  Level Albuquerque Center
04:56PM 31.2103 -102.5072 282° West 386 444 38,000  Level Albuquerque Center
04:57PM 31.2314 -102.6294 281° West 385 443 38,000  Level Albuquerque Center
04:58PM 31.2542 -102.7533 282° West 388 447 38,000  Level Albuquerque Center
04:59PM 31.2750 -102.8781 281° West 390 449 38,000  Level Albuquerque Center
05:00PM 31.2978 -103.0028 282° West 392 451 38,000  Level Albuquerque Center
05:02PM 31.3189 -103.1272 281° West 391 450 38,000  Level Albuquerque Center
05:03PM 31.3444 -103.2753 281° West 387 445 38,000  Level Albuquerque Center
05:04PM 31.3639 -103.3956 281° West 383 441 38,000  Level Albuquerque Center
05:05PM 31.3819 -103.5061 281° West 380 437 38,000  Level Albuquerque Center
05:06PM 31.4036 -103.6286 282° West 383 441 38,000  Level Albuquerque Center
05:07PM 31.4281 -103.7744 281° West 382 440 38,000  Level Albuquerque Center
05:08PM 31.4472 -103.8956 281° West 381 438 38,000  Level Albuquerque Center
05:09PM 31.4678 -104.0178 281° West 382 440 38,000  Level Albuquerque Center
05:10PM 31.4883 -104.1414 281° West 386 444 38,000  Level Albuquerque Center
05:11PM 31.5083 -104.2636 281° West 386 444 38,000  Level Albuquerque Center
05:12PM 31.5314 -104.4075 281° West 380 437 38,000  Level Albuquerque Center
05:13PM 31.5500 -104.5272 280° West 377 434 38,000  Level Albuquerque Center
05:14PM 31.5686 -104.6461 280° West 375 432 38,000  Level Albuquerque Center
05:15PM 31.5867 -104.7642 280° West 373 429 38,000  Level Albuquerque Center
05:16PM 31.6058 -104.8831 281° West 372 428 38,000  Level Albuquerque Center
05:17PM 31.6275 -105.0242 280° West 370 426 38,000  Level Albuquerque Center
05:18PM 31.6464 -105.1428 281° West 372 428 38,000  Level Albuquerque Center
05:19PM 31.6633 -105.2625 279° West 374 430 38,000  Level Albuquerque Center
05:20PM 31.6819 -105.3797 281° West 369 425 38,000  Level Albuquerque Center
05:21PM 31.7017 -105.5006 281° West 376 433 38,000  Level Albuquerque Center
05:22PM 31.7350 -105.6181 288° West 381 438 38,000  Level Albuquerque Center
05:23PM 31.7733 -105.7614 287° West 385 443 38,000  Level Albuquerque Center
05:24PM 31.8072 -105.8800 289° West 384 442 38,000  Level Albuquerque Center
05:25PM 31.8386 -105.9994 287° West 384 442 38,000  Level Albuquerque Center
05:26PM 31.8706 -106.1197 287° West 386 444 38,000  Level Albuquerque Center
05:27PM 31.9044 -106.2397 288° West 387 445 38,000  Level Albuquerque Center
05:28PM 31.9411 -106.3853 287° West 387 445 38,000  Level Albuquerque Center
05:29PM 31.9733 -106.5044 288° West 382 440 38,000  Level Albuquerque Center
05:30PM 32.0050 -106.6219 288° West 379 436 38,000  Level Albuquerque Center
05:32PM 32.0369 -106.7411 288° West 380 437 38,000  Level Albuquerque Center
05:33PM 32.0678 -106.8600 287° West 379 436 38,000  Level Albuquerque Center
05:34PM 32.0994 -106.9794 287° West 380 437 38,000  Level Albuquerque Center
05:35PM 32.1294 -107.0989 287° West 379 436 38,000  Level Albuquerque Center
05:36PM 32.1664 -107.2425 287° West 379 436 38,000  Level Albuquerque Center
05:37PM 32.1931 -107.3544 286° West 382 440 38,000  Level Albuquerque Center
05:38PM 32.2217 -107.4747 286° West 385 443 38,000  Level Albuquerque Center
05:39PM 32.2578 -107.6053 288° West 381 438 38,000  Level Albuquerque Center
05:40PM 32.2872 -107.7278 286° West 385 443 38,000  Level Albuquerque Center
05:41PM 32.3192 -107.8503 287° West 387 445 38,000  Level Albuquerque Center
05:42PM 32.3494 -107.9733 286° West 389 448 38,000  Level Albuquerque Center
05:43PM 32.3856 -108.1219 286° West 391 450 38,000  Level Albuquerque Center
05:44PM 32.4172 -108.2467 287° West 394 453 38,000  Level Albuquerque Center
05:45PM 32.4481 -108.3733 286° West 390 449 38,000  Level Albuquerque Center
05:46PM 32.4792 -108.4969 287° West 393 452 38,000  Level Albuquerque Center
05:47PM 32.5086 -108.6178 286° West 386 444 38,000  Level Albuquerque Center
05:48PM 32.5383 -108.7428 286° West 392 451 38,000  Level Albuquerque Center
05:49PM 32.5681 -108.8678 286° West 394 453 38,000  Level Albuquerque Center
05:50PM 32.6050 -109.0203 286° West 399 459 38,000  Level Albuquerque Center
05:51PM 32.6356 -109.1475 286° West 401 461 38,000  Level Albuquerque Center
05:52PM 32.6656 -109.2753 286° West 401 461 38,000  Level Albuquerque Center
05:53PM 32.6953 -109.4003 286° West 395 455 38,000  Level Albuquerque Center
05:54PM 32.7242 -109.5222 286° West 387 445 38,000  Level Albuquerque Center
05:55PM 32.7542 -109.6458 286° West 388 447 38,000  Level Albuquerque Center
05:56PM 32.7889 -109.7939 286° West 389 448 38,000  Level Albuquerque Center
05:57PM 32.8181 -109.9156 286° West 388 447 38,000  Level Albuquerque Center
05:58PM 32.8461 -110.0361 286° West 386 444 38,000  Level Albuquerque Center
05:59PM 32.8747 -110.1575 286° West 383 441 38,000  Level Albuquerque Center
06:00PM 32.9025 -110.2789 285° West 384 442 38,000  Level Albuquerque Center
06:01PM 32.9364 -110.4244 286° West 383 441 38,000  Level Albuquerque Center
06:03PM 32.9628 -110.5436 285° West 378 435 38,000  Level Albuquerque Center
06:04PM 32.9892 -110.6628 285° West 376 433 38,000  Level Albuquerque Center
06:05PM 33.0181 -110.7886 285° West 374 430 38,000  Level Albuquerque Center
06:06PM 33.0442 -110.9075 285° West 372 428 38,000  Level Albuquerque Center
06:07PM 33.0703 -111.0244 285° West 367 422 38,000  Level Albuquerque Center
06:08PM 33.0969 -111.1428 285° West 368 423 38,000  Level Albuquerque Center
06:09PM 33.1228 -111.2603 285° West 366 421 38,000  Level Albuquerque Center
06:10PM 33.1478 -111.3772 284° West 365 420 38,000  Level Albuquerque Center
06:11PM 33.1789 -111.5183 285° West 365 420 38,000  Level Albuquerque Center
06:12PM 33.2039 -111.6367 284° West 368 423 38,000  Level Albuquerque Center
06:13PM 33.2303 -111.7564 285° West 371 427 38,000  Level Albuquerque Center
06:14PM 33.2553 -111.8767 284° West 371 427 38,000  Level Albuquerque Center
06:15PM 33.2811 -111.9975 284° West 374 430 38,000  Level Albuquerque Center
06:16PM 33.3064 -112.1186 284° West 374 430 38,000  Level Albuquerque Center
06:17PM 33.3322 -112.2403 284° West 375 432 38,000  Level Albuquerque Center
06:18PM 33.3692 -112.3831 287° West 375 432 38,000  Level Albuquerque Center
06:19PM 33.4072 -112.5000 291° West 375 432 38,000  Level Albuquerque Center
06:20PM 33.4483 -112.6214 292° West 374 430 38,000  Level Albuquerque Center
06:21PM 33.4861 -112.7375 291° West 374 430 38,000  Level Albuquerque Center
06:22PM 33.5231 -112.8531 291° West 374 430 38,000  Level Albuquerque Center
06:23PM 33.5611 -112.9692 291° West 375 432 38,000  Level Albuquerque Center
06:24PM 33.5994 -113.0861 292° West 377 434 38,000  Level Albuquerque Center
06:25PM 33.6447 -113.2244 291° West 380 437 38,000  Level Albuquerque Center
06:26PM 33.6822 -113.3431 291° West 380 437 38,000  Level Albuquerque Center
06:27PM 33.7194 -113.4619 291° West 380 437 38,000  Level Albuquerque Center
06:28PM 33.7583 -113.5819 291° West 383 441 38,000  Level Albuquerque Center
06:29PM 33.7956 -113.7025 290° West 384 442 38,000  Level Albuquerque Center
06:30PM 33.8336 -113.8208 291° West 382 440 38,000  Level Albuquerque Center
06:31PM 33.8794 -113.9639 291° West 382 440 38,000  Level Albuquerque Center
06:32PM 33.8997 -114.0900 281° West 382 440 38,000  Level Albuquerque Center
06:33PM 33.9144 -114.2164 278° West 383 441 38,000  Level Albuquerque Center
06:34PM 33.9331 -114.3444 280° West 384 442 38,000  Level Albuquerque Center
06:35PM 33.9425 -114.4072 280° West 385 443 38,000  Level Los Angeles Center
06:36PM 33.9586 -114.5336 279° West 385 443 38,000  Level Los Angeles Center
06:37PM 33.9778 -114.6856 279° West 384 442 38,000  Level Los Angeles Center
06:38PM 33.9986 -114.8381 279° West 385 443 38,000  Level Los Angeles Center
06:39PM 34.0139 -114.9644 278° West 382 440 38,000 -420 Level Los Angeles Center
06:40PM 34.0306 -115.0914 279° West 384 442 37,200 -900 Descending Los Angeles Center
06:41PM 34.0456 -115.2194 278° West 388 447 36,200 -1,440 Descending Los Angeles Center
06:42PM 34.0614 -115.3511 278° West 397 457 34,300 -1,620 Descending Los Angeles Center
06:43PM 34.0789 -115.4853 279° West 405 466 32,900 -1,320 Descending Los Angeles Center
06:44PM 34.0992 -115.6525 278° West 420 483 31,600 -1,140 Descending Los Angeles Center
06:46PM 34.1108 -115.7875 276° West 409 471 30,600 -1,020 Descending Los Angeles Center
06:47PM 34.0903 -115.9208 259° West 409 471 29,600 -1,020 Descending Los Angeles Center
06:48PM 34.0706 -116.0514 260° West 401 461 28,600 -1,020 Descending Los Angeles Center
06:49PM 34.0514 -116.1831 260° West 400 460 27,500 -1,140 Descending Los Angeles Center
06:50PM 34.0278 -116.3350 259° West 388 447 26,300 -1,080 Descending Los Angeles Center
06:51PM 34.0089 -116.4606 260° West 384 442 25,300 -1,020 Descending Los Angeles Center
06:52PM 33.9975 -116.5844 264° West 377 434 24,300 -840 Descending Los Angeles Center
06:53PM 33.9869 -116.7086 264° West 375 432 23,600 -1,260 Descending Los Angeles Center
06:54PM 33.9775 -116.8297 265° West 367 422 21,700 -2,160 Descending Los Angeles Center
06:55PM 33.9658 -116.9694 264° West 354 407 19,200 -2,280 Descending Los Angeles Center
06:56PM 33.9500 -117.1000 262° West 369 425 17,100 -1,740 Descending Southern California TRACON
06:57PM 33.9500 -117.2167 270° West 363 418 15,700 -1,560 Descending Southern California TRACON
06:58PM 33.9333 -117.3333 260° West 357 411 14,000 -1,860 Descending Southern California TRACON
06:59PM 33.9667 -117.4500 289° West 346 398 12,000 -1,560 Descending Southern California TRACON
07:00PM 34.0000 -117.5500 292° West 342 394 10,900 -960 Descending Southern California TRACON
07:01PM 34.0167 -117.6500 281° West 326 375 10,100 -480 Descending Southern California TRACON
07:02PM 34.0000 -117.7667 260° West 306 352 10,000 -840 Descending Southern California TRACON
07:03PM 34.0000 -117.8500 270° West 288 331 8,500 -1,560 Descending Southern California TRACON
07:04PM 33.9833 -117.9500 259° West 289 333 7,100 -1,200 Descending Southern California TRACON
07:05PM 33.9833 -118.0333 270° West 259 298 6,100 -1,380 Descending Southern California TRACON
07:06PM 33.9833 -118.1167 270° West 240 276 4,300 -1,680 Descending Southern California TRACON
07:06PM 33.9789 -118.1383 256° West 242 278 3,900 -1,080 Descending Los Angeles Center
07:07PM 33.9717 -118.2075 263° West 218 251 2,900 -900 Descending Los Angeles Center
07:08PM 33.9656 -118.2767 264° West 192 221 2,100 -780 Descending Los Angeles Center
07:09PM 33.9611 -118.3244 264° West 165 190 1,400 -720 Descending Los Angeles Center
07:10PM 33.9569 -118.3658 263° West 143 165 700 -660 Descending Los Angeles Center
07:11PM 33.9522 -118.4067 262° West 131 151 100 -600 Descending Los Angeles Center
07:13PM 33.9425 -118.4081 270° West  Level Estimated
07:20PM 33.9425 -118.4081 270° West  Level Estimated